sensor_id;sensor_type;location;lat;lon;timestamp;P1;durP1;ratioP1;P2;durP2;ratioP2
10701;SDS011;5402;50.004;8.246;2022-10-23T00:01:16;7.20;;;4.70;;
10701;SDS011;5402;50.004;8.246;2022-10-23T00:03:45;8.80;;;4.23;;
10701;SDS011;5402;50.004;8.246;2022-10-23T00:06:12;7.03;;;4.43;;
10701;SDS011;5402;50.004;8.246;2022-10-23T00:08:40;7.40;;;4.23;;
10701;SDS011;5402;50.004;8.246;2022-10-23T00:11:07;6.37;;;4.27;;
10701;SDS011;5402;50.004;8.246;2022-10-23T00:13:35;6.03;;;4.30;;
10701;SDS011;5402;50.004;8.246;2022-10-23T00:16:02;8.97;;;4.27;;
10701;SDS011;5402;50.004;8.246;2022-10-23T00:18:29;10.30;;;4.20;;
10701;SDS011;5402;50.004;8.246;2022-10-23T00:20:56;5.73;;;4.20;;
10701;SDS011;5402;50.004;8.246;2022-10-23T00:23:23;7.43;;;4.10;;
10701;SDS011;5402;50.004;8.246;2022-10-23T00:25:50;6.43;;;4.60;;
10701;SDS011;5402;50.004;8.246;2022-10-23T00:28:17;7.63;;;5.87;;
10701;SDS011;5402;50.004;8.246;2022-10-23T00:30:45;7.57;;;4.87;;
10701;SDS011;5402;50.004;8.246;2022-10-23T00:33:11;8.07;;;4.30;;
10701;SDS011;5402;50.004;8.246;2022-10-23T00:35:38;8.13;;;4.10;;
10701;SDS011;5402;50.004;8.246;2022-10-23T00:38:06;7.07;;;4.27;;
10701;SDS011;5402;50.004;8.246;2022-10-23T00:40:33;5.73;;;3.60;;
10701;SDS011;5402;50.004;8.246;2022-10-23T00:43:00;9.73;;;4.30;;
10701;SDS011;5402;50.004;8.246;2022-10-23T00:45:28;6.33;;;4.40;;
10701;SDS011;5402;50.004;8.246;2022-10-23T00:47:58;12.60;;;5.97;;
10701;SDS011;5402;50.004;8.246;2022-10-23T00:50:26;9.70;;;4.67;;
10701;SDS011;5402;50.004;8.246;2022-10-23T00:52:56;7.17;;;4.67;;
10701;SDS011;5402;50.004;8.246;2022-10-23T00:55:26;7.97;;;4.60;;
10701;SDS011;5402;50.004;8.246;2022-10-23T00:57:54;7.23;;;4.03;;
10701;SDS011;5402;50.004;8.246;2022-10-23T01:00:22;6.97;;;4.23;;
10701;SDS011;5402;50.004;8.246;2022-10-23T01:02:50;7.87;;;4.03;;
10701;SDS011;5402;50.004;8.246;2022-10-23T01:05:21;6.80;;;3.67;;
10701;SDS011;5402;50.004;8.246;2022-10-23T01:07:51;7.00;;;3.77;;
10701;SDS011;5402;50.004;8.246;2022-10-23T01:10:22;8.60;;;4.20;;
10701;SDS011;5402;50.004;8.246;2022-10-23T01:13:01;8.90;;;3.87;;
10701;SDS011;5402;50.004;8.246;2022-10-23T01:15:34;7.37;;;3.77;;
10701;SDS011;5402;50.004;8.246;2022-10-23T01:18:08;6.17;;;4.00;;
10701;SDS011;5402;50.004;8.246;2022-10-23T01:20:43;10.60;;;5.83;;
10701;SDS011;5402;50.004;8.246;2022-10-23T01:23:23;8.27;;;4.77;;
10701;SDS011;5402;50.004;8.246;2022-10-23T01:26:06;7.87;;;3.93;;
10701;SDS011;5402;50.004;8.246;2022-10-23T01:28:46;8.87;;;5.00;;
10701;SDS011;5402;50.004;8.246;2022-10-23T01:31:16;8.17;;;5.43;;
10701;SDS011;5402;50.004;8.246;2022-10-23T01:33:49;10.77;;;5.93;;
10701;SDS011;5402;50.004;8.246;2022-10-23T01:36:22;11.00;;;5.53;;
10701;SDS011;5402;50.004;8.246;2022-10-23T01:38:52;10.60;;;6.20;;
10701;SDS011;5402;50.004;8.246;2022-10-23T01:41:23;12.10;;;7.53;;
10701;SDS011;5402;50.004;8.246;2022-10-23T01:43:57;11.63;;;6.53;;
10701;SDS011;5402;50.004;8.246;2022-10-23T01:46:29;10.47;;;6.13;;
10701;SDS011;5402;50.004;8.246;2022-10-23T01:48:59;12.53;;;6.47;;
10701;SDS011;5402;50.004;8.246;2022-10-23T01:51:29;9.60;;;5.20;;
10701;SDS011;5402;50.004;8.246;2022-10-23T01:53:58;11.63;;;5.33;;
10701;SDS011;5402;50.004;8.246;2022-10-23T01:56:26;9.20;;;5.57;;
10701;SDS011;5402;50.004;8.246;2022-10-23T01:58:57;10.47;;;4.67;;
10701;SDS011;5402;50.004;8.246;2022-10-23T02:01:28;8.03;;;5.00;;
10701;SDS011;5402;50.004;8.246;2022-10-23T02:03:57;7.73;;;4.87;;
10701;SDS011;5402;50.004;8.246;2022-10-23T02:06:26;10.10;;;4.90;;
10701;SDS011;5402;50.004;8.246;2022-10-23T02:08:53;8.47;;;4.27;;
10701;SDS011;5402;50.004;8.246;2022-10-23T02:11:21;6.93;;;3.80;;
10701;SDS011;5402;50.004;8.246;2022-10-23T02:13:49;6.83;;;4.20;;
10701;SDS011;5402;50.004;8.246;2022-10-23T02:16:23;5.67;;;3.60;;
10701;SDS011;5402;50.004;8.246;2022-10-23T02:18:57;7.10;;;3.77;;
10701;SDS011;5402;50.004;8.246;2022-10-23T02:21:33;9.93;;;4.07;;
10701;SDS011;5402;50.004;8.246;2022-10-23T02:24:06;6.63;;;4.10;;
10701;SDS011;5402;50.004;8.246;2022-10-23T02:26:37;7.60;;;4.10;;
10701;SDS011;5402;50.004;8.246;2022-10-23T02:29:08;8.30;;;4.20;;
10701;SDS011;5402;50.004;8.246;2022-10-23T02:31:40;9.43;;;4.33;;
10701;SDS011;5402;50.004;8.246;2022-10-23T02:34:07;8.60;;;4.40;;
10701;SDS011;5402;50.004;8.246;2022-10-23T02:36:34;6.40;;;4.07;;
10701;SDS011;5402;50.004;8.246;2022-10-23T02:39:01;5.23;;;3.90;;
10701;SDS011;5402;50.004;8.246;2022-10-23T02:41:34;6.40;;;3.90;;
10701;SDS011;5402;50.004;8.246;2022-10-23T02:44:10;11.10;;;4.30;;
10701;SDS011;5402;50.004;8.246;2022-10-23T02:46:57;6.93;;;3.97;;
10701;SDS011;5402;50.004;8.246;2022-10-23T02:49:32;9.67;;;4.03;;
10701;SDS011;5402;50.004;8.246;2022-10-23T02:52:05;7.20;;;3.73;;
10701;SDS011;5402;50.004;8.246;2022-10-23T02:54:48;6.60;;;4.10;;
10701;SDS011;5402;50.004;8.246;2022-10-23T02:57:26;10.00;;;4.07;;
10701;SDS011;5402;50.004;8.246;2022-10-23T02:59:59;11.73;;;4.67;;
10701;SDS011;5402;50.004;8.246;2022-10-23T03:02:33;11.73;;;5.20;;
10701;SDS011;5402;50.004;8.246;2022-10-23T03:05:05;8.10;;;4.70;;
10701;SDS011;5402;50.004;8.246;2022-10-23T03:07:34;10.63;;;4.83;;
10701;SDS011;5402;50.004;8.246;2022-10-23T03:10:02;7.80;;;4.70;;
10701;SDS011;5402;50.004;8.246;2022-10-23T03:12:29;8.00;;;5.03;;
10701;SDS011;5402;50.004;8.246;2022-10-23T03:14:56;8.40;;;5.40;;
10701;SDS011;5402;50.004;8.246;2022-10-23T03:17:22;9.80;;;5.70;;
10701;SDS011;5402;50.004;8.246;2022-10-23T03:19:51;9.20;;;6.13;;
10701;SDS011;5402;50.004;8.246;2022-10-23T03:22:18;15.47;;;6.53;;
10701;SDS011;5402;50.004;8.246;2022-10-23T03:24:46;12.70;;;6.43;;
10701;SDS011;5402;50.004;8.246;2022-10-23T03:27:13;11.20;;;6.20;;
10701;SDS011;5402;50.004;8.246;2022-10-23T03:29:40;13.70;;;6.63;;
10701;SDS011;5402;50.004;8.246;2022-10-23T03:32:07;9.93;;;5.80;;
10701;SDS011;5402;50.004;8.246;2022-10-23T03:34:34;9.90;;;6.03;;
10701;SDS011;5402;50.004;8.246;2022-10-23T03:37:02;8.57;;;5.83;;
10701;SDS011;5402;50.004;8.246;2022-10-23T03:39:29;12.77;;;6.97;;
10701;SDS011;5402;50.004;8.246;2022-10-23T03:41:57;10.77;;;6.50;;
10701;SDS011;5402;50.004;8.246;2022-10-23T03:44:24;14.07;;;6.63;;
10701;SDS011;5402;50.004;8.246;2022-10-23T03:46:50;10.87;;;6.13;;
10701;SDS011;5402;50.004;8.246;2022-10-23T03:49:17;11.77;;;6.67;;
10701;SDS011;5402;50.004;8.246;2022-10-23T03:51:44;12.20;;;6.23;;
10701;SDS011;5402;50.004;8.246;2022-10-23T03:54:17;8.67;;;6.00;;
10701;SDS011;5402;50.004;8.246;2022-10-23T03:56:45;10.33;;;6.47;;
10701;SDS011;5402;50.004;8.246;2022-10-23T03:59:11;8.90;;;5.20;;
10701;SDS011;5402;50.004;8.246;2022-10-23T04:01:38;11.07;;;5.60;;
10701;SDS011;5402;50.004;8.246;2022-10-23T04:04:05;12.57;;;6.13;;
10701;SDS011;5402;50.004;8.246;2022-10-23T04:06:32;10.10;;;5.90;;
10701;SDS011;5402;50.004;8.246;2022-10-23T04:08:59;10.97;;;6.10;;
10701;SDS011;5402;50.004;8.246;2022-10-23T04:11:27;8.93;;;5.43;;
10701;SDS011;5402;50.004;8.246;2022-10-23T04:13:54;13.83;;;6.90;;
10701;SDS011;5402;50.004;8.246;2022-10-23T04:16:20;10.33;;;6.20;;
10701;SDS011;5402;50.004;8.246;2022-10-23T04:18:48;8.43;;;5.70;;
10701;SDS011;5402;50.004;8.246;2022-10-23T04:21:14;11.77;;;6.00;;
10701;SDS011;5402;50.004;8.246;2022-10-23T04:23:41;9.53;;;6.00;;
10701;SDS011;5402;50.004;8.246;2022-10-23T04:26:08;10.53;;;6.40;;
10701;SDS011;5402;50.004;8.246;2022-10-23T04:28:36;8.77;;;6.23;;
10701;SDS011;5402;50.004;8.246;2022-10-23T04:31:03;12.67;;;6.10;;
10701;SDS011;5402;50.004;8.246;2022-10-23T04:33:30;9.27;;;5.90;;
10701;SDS011;5402;50.004;8.246;2022-10-23T04:35:57;10.97;;;5.90;;
10701;SDS011;5402;50.004;8.246;2022-10-23T04:38:23;9.73;;;5.77;;
10701;SDS011;5402;50.004;8.246;2022-10-23T04:40:50;9.93;;;5.67;;
10701;SDS011;5402;50.004;8.246;2022-10-23T04:43:17;10.70;;;6.00;;
10701;SDS011;5402;50.004;8.246;2022-10-23T04:45:45;7.60;;;5.07;;
10701;SDS011;5402;50.004;8.246;2022-10-23T04:48:14;9.23;;;5.27;;
10701;SDS011;5402;50.004;8.246;2022-10-23T04:50:41;14.27;;;6.40;;
10701;SDS011;5402;50.004;8.246;2022-10-23T04:53:07;9.67;;;5.87;;
10701;SDS011;5402;50.004;8.246;2022-10-23T04:55:35;8.10;;;5.70;;
10701;SDS011;5402;50.004;8.246;2022-10-23T04:58:01;12.27;;;5.53;;
10701;SDS011;5402;50.004;8.246;2022-10-23T05:00:28;9.87;;;5.90;;
10701;SDS011;5402;50.004;8.246;2022-10-23T05:02:56;11.80;;;6.27;;
10701;SDS011;5402;50.004;8.246;2022-10-23T05:05:23;9.30;;;6.40;;
10701;SDS011;5402;50.004;8.246;2022-10-23T05:07:50;12.20;;;6.03;;
10701;SDS011;5402;50.004;8.246;2022-10-23T05:10:17;9.00;;;5.47;;
10701;SDS011;5402;50.004;8.246;2022-10-23T05:12:43;9.47;;;5.70;;
10701;SDS011;5402;50.004;8.246;2022-10-23T05:15:10;11.17;;;6.30;;
10701;SDS011;5402;50.004;8.246;2022-10-23T05:17:37;8.33;;;5.70;;
10701;SDS011;5402;50.004;8.246;2022-10-23T05:20:08;9.60;;;5.80;;
10701;SDS011;5402;50.004;8.246;2022-10-23T05:22:38;9.17;;;5.60;;
10701;SDS011;5402;50.004;8.246;2022-10-23T05:25:08;10.30;;;5.77;;
10701;SDS011;5402;50.004;8.246;2022-10-23T05:27:35;10.77;;;5.93;;
10701;SDS011;5402;50.004;8.246;2022-10-23T05:30:02;11.30;;;5.97;;
10701;SDS011;5402;50.004;8.246;2022-10-23T05:32:30;11.17;;;5.77;;
10701;SDS011;5402;50.004;8.246;2022-10-23T05:34:58;9.10;;;5.43;;
10701;SDS011;5402;50.004;8.246;2022-10-23T05:37:27;13.53;;;6.17;;
10701;SDS011;5402;50.004;8.246;2022-10-23T05:39:54;9.73;;;5.73;;
10701;SDS011;5402;50.004;8.246;2022-10-23T05:42:21;11.20;;;6.03;;
10701;SDS011;5402;50.004;8.246;2022-10-23T05:44:48;7.90;;;5.70;;
10701;SDS011;5402;50.004;8.246;2022-10-23T05:47:15;10.10;;;5.93;;
10701;SDS011;5402;50.004;8.246;2022-10-23T05:49:42;12.37;;;6.37;;
10701;SDS011;5402;50.004;8.246;2022-10-23T05:52:09;9.97;;;6.17;;
10701;SDS011;5402;50.004;8.246;2022-10-23T05:54:37;11.40;;;5.70;;
10701;SDS011;5402;50.004;8.246;2022-10-23T05:57:04;8.50;;;5.93;;
10701;SDS011;5402;50.004;8.246;2022-10-23T05:59:31;10.77;;;6.00;;
10701;SDS011;5402;50.004;8.246;2022-10-23T06:01:58;8.00;;;5.33;;
10701;SDS011;5402;50.004;8.246;2022-10-23T06:04:24;8.17;;;5.33;;
10701;SDS011;5402;50.004;8.246;2022-10-23T06:06:51;11.33;;;5.73;;
10701;SDS011;5402;50.004;8.246;2022-10-23T06:09:18;10.70;;;5.17;;
10701;SDS011;5402;50.004;8.246;2022-10-23T06:11:46;9.30;;;5.87;;
10701;SDS011;5402;50.004;8.246;2022-10-23T06:14:13;6.07;;;5.07;;
10701;SDS011;5402;50.004;8.246;2022-10-23T06:16:40;8.57;;;5.40;;
10701;SDS011;5402;50.004;8.246;2022-10-23T06:19:08;8.97;;;6.00;;
10701;SDS011;5402;50.004;8.246;2022-10-23T06:21:35;9.77;;;6.17;;
10701;SDS011;5402;50.004;8.246;2022-10-23T06:24:02;11.83;;;5.57;;
10701;SDS011;5402;50.004;8.246;2022-10-23T06:26:29;8.03;;;5.83;;
10701;SDS011;5402;50.004;8.246;2022-10-23T06:28:57;10.63;;;5.57;;
10701;SDS011;5402;50.004;8.246;2022-10-23T06:31:24;8.97;;;5.33;;
10701;SDS011;5402;50.004;8.246;2022-10-23T06:33:52;8.77;;;5.70;;
10701;SDS011;5402;50.004;8.246;2022-10-23T06:36:20;9.13;;;5.30;;
10701;SDS011;5402;50.004;8.246;2022-10-23T06:38:46;9.07;;;5.63;;
10701;SDS011;5402;50.004;8.246;2022-10-23T06:41:14;9.67;;;5.83;;
10701;SDS011;5402;50.004;8.246;2022-10-23T06:43:42;9.63;;;5.70;;
10701;SDS011;5402;50.004;8.246;2022-10-23T06:46:10;10.50;;;5.80;;
10701;SDS011;5402;50.004;8.246;2022-10-23T06:48:37;13.80;;;6.30;;
10701;SDS011;5402;50.004;8.246;2022-10-23T06:51:06;8.10;;;5.50;;
10701;SDS011;5402;50.004;8.246;2022-10-23T06:53:34;13.30;;;8.10;;
10701;SDS011;5402;50.004;8.246;2022-10-23T06:56:02;10.40;;;5.70;;
10701;SDS011;5402;50.004;8.246;2022-10-23T06:58:30;10.57;;;5.60;;
10701;SDS011;5402;50.004;8.246;2022-10-23T07:00:58;9.43;;;5.00;;
10701;SDS011;5402;50.004;8.246;2022-10-23T07:03:27;8.40;;;5.63;;
10701;SDS011;5402;50.004;8.246;2022-10-23T07:05:54;9.23;;;5.63;;
10701;SDS011;5402;50.004;8.246;2022-10-23T07:08:21;11.63;;;5.47;;
10701;SDS011;5402;50.004;8.246;2022-10-23T07:10:47;9.23;;;5.30;;
10701;SDS011;5402;50.004;8.246;2022-10-23T07:13:14;10.47;;;5.77;;
10701;SDS011;5402;50.004;8.246;2022-10-23T07:15:41;8.80;;;5.40;;
10701;SDS011;5402;50.004;8.246;2022-10-23T07:18:08;7.37;;;5.53;;
10701;SDS011;5402;50.004;8.246;2022-10-23T07:20:39;8.57;;;5.47;;
10701;SDS011;5402;50.004;8.246;2022-10-23T07:23:07;11.10;;;6.33;;
10701;SDS011;5402;50.004;8.246;2022-10-23T07:25:36;8.07;;;5.60;;
10701;SDS011;5402;50.004;8.246;2022-10-23T07:28:03;7.67;;;5.87;;
10701;SDS011;5402;50.004;8.246;2022-10-23T07:30:30;7.87;;;6.03;;
10701;SDS011;5402;50.004;8.246;2022-10-23T07:32:57;6.93;;;5.70;;
10701;SDS011;5402;50.004;8.246;2022-10-23T07:35:23;10.30;;;6.20;;
10701;SDS011;5402;50.004;8.246;2022-10-23T07:37:51;10.40;;;6.20;;
10701;SDS011;5402;50.004;8.246;2022-10-23T07:40:18;9.43;;;6.00;;
10701;SDS011;5402;50.004;8.246;2022-10-23T07:42:45;12.07;;;6.30;;
10701;SDS011;5402;50.004;8.246;2022-10-23T07:45:12;12.17;;;7.60;;
10701;SDS011;5402;50.004;8.246;2022-10-23T07:47:39;11.67;;;6.80;;
10701;SDS011;5402;50.004;8.246;2022-10-23T07:50:06;7.00;;;5.80;;
10701;SDS011;5402;50.004;8.246;2022-10-23T07:52:33;8.87;;;5.93;;
10701;SDS011;5402;50.004;8.246;2022-10-23T07:55:02;8.77;;;5.67;;
10701;SDS011;5402;50.004;8.246;2022-10-23T07:57:29;13.40;;;6.10;;
10701;SDS011;5402;50.004;8.246;2022-10-23T07:59:56;9.73;;;6.07;;
10701;SDS011;5402;50.004;8.246;2022-10-23T08:02:22;12.17;;;6.33;;
10701;SDS011;5402;50.004;8.246;2022-10-23T08:04:49;9.17;;;6.10;;
10701;SDS011;5402;50.004;8.246;2022-10-23T08:07:16;10.17;;;6.40;;
10701;SDS011;5402;50.004;8.246;2022-10-23T08:09:43;11.60;;;6.50;;
10701;SDS011;5402;50.004;8.246;2022-10-23T08:12:11;8.43;;;6.07;;
10701;SDS011;5402;50.004;8.246;2022-10-23T08:14:38;8.30;;;5.70;;
10701;SDS011;5402;50.004;8.246;2022-10-23T08:17:04;10.53;;;6.30;;
10701;SDS011;5402;50.004;8.246;2022-10-23T08:19:33;11.00;;;5.87;;
10701;SDS011;5402;50.004;8.246;2022-10-23T08:22:00;9.67;;;6.20;;
10701;SDS011;5402;50.004;8.246;2022-10-23T08:24:27;9.23;;;5.43;;
10701;SDS011;5402;50.004;8.246;2022-10-23T08:26:54;9.13;;;6.20;;
10701;SDS011;5402;50.004;8.246;2022-10-23T08:29:24;9.30;;;6.20;;
10701;SDS011;5402;50.004;8.246;2022-10-23T08:31:51;8.50;;;5.17;;
10701;SDS011;5402;50.004;8.246;2022-10-23T08:34:19;9.60;;;5.23;;
10701;SDS011;5402;50.004;8.246;2022-10-23T08:36:46;10.97;;;5.73;;
10701;SDS011;5402;50.004;8.246;2022-10-23T08:39:13;11.33;;;5.97;;
10701;SDS011;5402;50.004;8.246;2022-10-23T08:41:41;9.33;;;5.70;;
10701;SDS011;5402;50.004;8.246;2022-10-23T08:44:16;7.43;;;5.40;;
10701;SDS011;5402;50.004;8.246;2022-10-23T08:46:48;5.13;;;4.63;;
10701;SDS011;5402;50.004;8.246;2022-10-23T08:49:35;7.93;;;4.93;;
10701;SDS011;5402;50.004;8.246;2022-10-23T08:52:09;5.23;;;4.20;;
10701;SDS011;5402;50.004;8.246;2022-10-23T08:54:43;8.47;;;4.10;;
10701;SDS011;5402;50.004;8.246;2022-10-23T08:57:18;5.30;;;3.70;;
10701;SDS011;5402;50.004;8.246;2022-10-23T08:59:48;7.00;;;3.90;;
10701;SDS011;5402;50.004;8.246;2022-10-23T09:02:23;5.87;;;4.03;;
10701;SDS011;5402;50.004;8.246;2022-10-23T09:04:53;7.10;;;4.47;;
10701;SDS011;5402;50.004;8.246;2022-10-23T09:07:24;8.07;;;3.80;;
10701;SDS011;5402;50.004;8.246;2022-10-23T09:10:09;4.50;;;3.67;;
10701;SDS011;5402;50.004;8.246;2022-10-23T09:12:55;5.90;;;3.33;;
10701;SDS011;5402;50.004;8.246;2022-10-23T09:15:24;4.53;;;3.17;;
10701;SDS011;5402;50.004;8.246;2022-10-23T09:17:57;7.33;;;3.70;;
10701;SDS011;5402;50.004;8.246;2022-10-23T09:20:30;7.00;;;4.63;;
10701;SDS011;5402;50.004;8.246;2022-10-23T09:23:00;4.10;;;3.07;;
10701;SDS011;5402;50.004;8.246;2022-10-23T09:25:32;6.77;;;3.67;;
10701;SDS011;5402;50.004;8.246;2022-10-23T09:28:00;5.33;;;3.23;;
10701;SDS011;5402;50.004;8.246;2022-10-23T09:30:30;5.00;;;3.40;;
10701;SDS011;5402;50.004;8.246;2022-10-23T09:32:59;7.77;;;4.03;;
10701;SDS011;5402;50.004;8.246;2022-10-23T09:35:28;8.63;;;3.90;;
10701;SDS011;5402;50.004;8.246;2022-10-23T09:37:55;4.83;;;3.37;;
10701;SDS011;5402;50.004;8.246;2022-10-23T09:40:24;5.43;;;3.50;;
10701;SDS011;5402;50.004;8.246;2022-10-23T09:42:58;7.50;;;3.53;;
10701;SDS011;5402;50.004;8.246;2022-10-23T09:45:28;5.90;;;3.30;;
10701;SDS011;5402;50.004;8.246;2022-10-23T09:48:09;5.77;;;3.90;;
10701;SDS011;5402;50.004;8.246;2022-10-23T09:50:41;4.57;;;3.20;;
10701;SDS011;5402;50.004;8.246;2022-10-23T09:53:25;4.97;;;3.50;;
10701;SDS011;5402;50.004;8.246;2022-10-23T09:55:56;4.43;;;3.23;;
10701;SDS011;5402;50.004;8.246;2022-10-23T09:58:27;7.40;;;3.57;;
10701;SDS011;5402;50.004;8.246;2022-10-23T10:00:57;4.30;;;2.90;;
10701;SDS011;5402;50.004;8.246;2022-10-23T10:03:25;5.70;;;3.30;;
10701;SDS011;5402;50.004;8.246;2022-10-23T10:05:54;7.57;;;3.40;;
10701;SDS011;5402;50.004;8.246;2022-10-23T10:08:24;5.83;;;3.37;;
10701;SDS011;5402;50.004;8.246;2022-10-23T10:11:04;4.50;;;3.50;;
10701;SDS011;5402;50.004;8.246;2022-10-23T10:13:51;6.37;;;3.50;;
10701;SDS011;5402;50.004;8.246;2022-10-23T10:16:31;3.73;;;3.03;;
10701;SDS011;5402;50.004;8.246;2022-10-23T10:19:09;4.97;;;3.47;;
10701;SDS011;5402;50.004;8.246;2022-10-23T10:21:44;7.23;;;3.20;;
10701;SDS011;5402;50.004;8.246;2022-10-23T10:24:19;6.80;;;3.23;;
10701;SDS011;5402;50.004;8.246;2022-10-23T10:26:52;7.67;;;3.50;;
10701;SDS011;5402;50.004;8.246;2022-10-23T10:29:35;5.70;;;2.83;;
10701;SDS011;5402;50.004;8.246;2022-10-23T10:32:15;5.40;;;2.87;;
10701;SDS011;5402;50.004;8.246;2022-10-23T10:34:52;4.30;;;3.10;;
10701;SDS011;5402;50.004;8.246;2022-10-23T10:37:25;5.20;;;3.03;;
10701;SDS011;5402;50.004;8.246;2022-10-23T10:39:57;3.73;;;2.90;;
10701;SDS011;5402;50.004;8.246;2022-10-23T10:42:30;4.10;;;2.80;;
10701;SDS011;5402;50.004;8.246;2022-10-23T10:45:16;3.93;;;3.17;;
10701;SDS011;5402;50.004;8.246;2022-10-23T10:47:48;4.33;;;2.80;;
10701;SDS011;5402;50.004;8.246;2022-10-23T10:50:42;4.20;;;3.10;;
10701;SDS011;5402;50.004;8.246;2022-10-23T10:53:14;3.27;;;2.50;;
10701;SDS011;5402;50.004;8.246;2022-10-23T10:55:49;5.10;;;2.70;;
10701;SDS011;5402;50.004;8.246;2022-10-23T10:58:19;5.53;;;3.30;;
10701;SDS011;5402;50.004;8.246;2022-10-23T11:00:51;6.63;;;3.30;;
10701;SDS011;5402;50.004;8.246;2022-10-23T11:03:23;5.83;;;3.10;;
10701;SDS011;5402;50.004;8.246;2022-10-23T11:05:58;4.27;;;3.00;;
10701;SDS011;5402;50.004;8.246;2022-10-23T11:08:28;4.80;;;2.90;;
10701;SDS011;5402;50.004;8.246;2022-10-23T11:11:01;3.30;;;3.00;;
10701;SDS011;5402;50.004;8.246;2022-10-23T11:13:33;4.23;;;3.00;;
10701;SDS011;5402;50.004;8.246;2022-10-23T11:16:03;5.97;;;3.17;;
10701;SDS011;5402;50.004;8.246;2022-10-23T11:18:35;5.67;;;3.13;;
10701;SDS011;5402;50.004;8.246;2022-10-23T11:21:10;7.30;;;3.20;;
10701;SDS011;5402;50.004;8.246;2022-10-23T11:23:48;4.83;;;3.10;;
10701;SDS011;5402;50.004;8.246;2022-10-23T11:26:39;5.10;;;3.40;;
10701;SDS011;5402;50.004;8.246;2022-10-23T11:29:20;4.10;;;3.23;;
10701;SDS011;5402;50.004;8.246;2022-10-23T11:32:09;4.10;;;2.87;;
10701;SDS011;5402;50.004;8.246;2022-10-23T11:34:55;4.53;;;3.57;;
10701;SDS011;5402;50.004;8.246;2022-10-23T11:37:42;4.13;;;2.93;;
10701;SDS011;5402;50.004;8.246;2022-10-23T11:40:17;4.50;;;3.07;;
10701;SDS011;5402;50.004;8.246;2022-10-23T11:42:48;5.57;;;3.53;;
10701;SDS011;5402;50.004;8.246;2022-10-23T11:45:25;5.40;;;2.83;;
10701;SDS011;5402;50.004;8.246;2022-10-23T11:47:57;4.60;;;3.03;;
10701;SDS011;5402;50.004;8.246;2022-10-23T11:50:27;5.40;;;2.87;;
10701;SDS011;5402;50.004;8.246;2022-10-23T11:53:00;5.00;;;2.83;;
10701;SDS011;5402;50.004;8.246;2022-10-23T11:55:34;4.70;;;3.00;;
10701;SDS011;5402;50.004;8.246;2022-10-23T11:58:09;3.43;;;2.90;;
10701;SDS011;5402;50.004;8.246;2022-10-23T12:00:52;4.70;;;2.90;;
10701;SDS011;5402;50.004;8.246;2022-10-23T12:03:23;6.03;;;3.97;;
10701;SDS011;5402;50.004;8.246;2022-10-23T12:05:59;3.33;;;2.80;;
10701;SDS011;5402;50.004;8.246;2022-10-23T12:08:31;4.67;;;3.00;;
10701;SDS011;5402;50.004;8.246;2022-10-23T12:10:59;3.43;;;3.13;;
10701;SDS011;5402;50.004;8.246;2022-10-23T12:13:28;4.03;;;2.83;;
10701;SDS011;5402;50.004;8.246;2022-10-23T12:15:56;7.87;;;3.87;;
10701;SDS011;5402;50.004;8.246;2022-10-23T12:18:23;7.20;;;3.23;;
10701;SDS011;5402;50.004;8.246;2022-10-23T12:20:51;7.93;;;3.87;;
10701;SDS011;5402;50.004;8.246;2022-10-23T12:23:27;4.63;;;2.63;;
10701;SDS011;5402;50.004;8.246;2022-10-23T12:26:25;3.97;;;2.73;;
10701;SDS011;5402;50.004;8.246;2022-10-23T12:29:08;5.13;;;2.50;;
10701;SDS011;5402;50.004;8.246;2022-10-23T12:31:45;4.87;;;2.87;;
10701;SDS011;5402;50.004;8.246;2022-10-23T12:34:19;5.97;;;3.00;;
10701;SDS011;5402;50.004;8.246;2022-10-23T12:36:58;4.10;;;2.70;;
10701;SDS011;5402;50.004;8.246;2022-10-23T12:39:35;6.17;;;2.80;;
10701;SDS011;5402;50.004;8.246;2022-10-23T12:42:04;3.93;;;2.93;;
10701;SDS011;5402;50.004;8.246;2022-10-23T12:44:36;3.77;;;2.67;;
10701;SDS011;5402;50.004;8.246;2022-10-23T12:47:02;3.70;;;2.50;;
10701;SDS011;5402;50.004;8.246;2022-10-23T12:49:30;4.17;;;2.73;;
10701;SDS011;5402;50.004;8.246;2022-10-23T12:51:59;3.63;;;2.50;;
10701;SDS011;5402;50.004;8.246;2022-10-23T12:54:29;4.13;;;2.40;;
10701;SDS011;5402;50.004;8.246;2022-10-23T12:56:57;4.33;;;2.57;;
10701;SDS011;5402;50.004;8.246;2022-10-23T12:59:27;5.40;;;2.27;;
10701;SDS011;5402;50.004;8.246;2022-10-23T13:02:01;3.37;;;2.20;;
10701;SDS011;5402;50.004;8.246;2022-10-23T13:04:38;2.73;;;2.20;;
10701;SDS011;5402;50.004;8.246;2022-10-23T13:07:05;5.63;;;2.60;;
10701;SDS011;5402;50.004;8.246;2022-10-23T13:09:33;4.03;;;2.73;;
10701;SDS011;5402;50.004;8.246;2022-10-23T13:12:07;3.73;;;2.50;;
10701;SDS011;5402;50.004;8.246;2022-10-23T13:14:52;4.33;;;2.47;;
10701;SDS011;5402;50.004;8.246;2022-10-23T13:17:21;3.33;;;2.47;;
10701;SDS011;5402;50.004;8.246;2022-10-23T13:20:06;3.47;;;2.10;;
10701;SDS011;5402;50.004;8.246;2022-10-23T13:22:44;4.73;;;2.20;;
10701;SDS011;5402;50.004;8.246;2022-10-23T13:25:20;3.27;;;2.30;;
10701;SDS011;5402;50.004;8.246;2022-10-23T13:27:48;2.43;;;2.07;;
10701;SDS011;5402;50.004;8.246;2022-10-23T13:30:29;3.50;;;2.10;;
10701;SDS011;5402;50.004;8.246;2022-10-23T13:32:57;3.70;;;2.10;;
10701;SDS011;5402;50.004;8.246;2022-10-23T13:35:25;3.53;;;2.40;;
10701;SDS011;5402;50.004;8.246;2022-10-23T13:37:52;2.97;;;2.07;;
10701;SDS011;5402;50.004;8.246;2022-10-23T13:40:20;2.27;;;2.07;;
10701;SDS011;5402;50.004;8.246;2022-10-23T13:42:49;3.10;;;2.07;;
10701;SDS011;5402;50.004;8.246;2022-10-23T13:45:18;2.70;;;2.50;;
10701;SDS011;5402;50.004;8.246;2022-10-23T13:47:47;5.00;;;2.53;;
10701;SDS011;5402;50.004;8.246;2022-10-23T13:50:14;3.43;;;3.07;;
10701;SDS011;5402;50.004;8.246;2022-10-23T13:52:41;3.53;;;2.03;;
10701;SDS011;5402;50.004;8.246;2022-10-23T13:55:10;3.03;;;2.40;;
10701;SDS011;5402;50.004;8.246;2022-10-23T13:57:45;3.90;;;3.20;;
10701;SDS011;5402;50.004;8.246;2022-10-23T14:00:12;2.63;;;1.93;;
10701;SDS011;5402;50.004;8.246;2022-10-23T14:02:40;5.53;;;2.17;;
10701;SDS011;5402;50.004;8.246;2022-10-23T14:05:09;4.17;;;2.47;;
10701;SDS011;5402;50.004;8.246;2022-10-23T14:07:36;4.07;;;2.13;;
10701;SDS011;5402;50.004;8.246;2022-10-23T14:10:03;3.93;;;2.47;;
10701;SDS011;5402;50.004;8.246;2022-10-23T14:12:37;2.97;;;2.30;;
10701;SDS011;5402;50.004;8.246;2022-10-23T14:15:05;1.97;;;1.77;;
10701;SDS011;5402;50.004;8.246;2022-10-23T14:17:33;2.23;;;1.77;;
10701;SDS011;5402;50.004;8.246;2022-10-23T14:20:00;3.00;;;2.33;;
10701;SDS011;5402;50.004;8.246;2022-10-23T14:22:28;2.37;;;2.17;;
10701;SDS011;5402;50.004;8.246;2022-10-23T14:24:55;2.47;;;1.90;;
10701;SDS011;5402;50.004;8.246;2022-10-23T14:27:22;3.77;;;2.00;;
10701;SDS011;5402;50.004;8.246;2022-10-23T14:29:49;4.67;;;2.40;;
10701;SDS011;5402;50.004;8.246;2022-10-23T14:32:16;2.60;;;2.10;;
10701;SDS011;5402;50.004;8.246;2022-10-23T14:34:42;2.90;;;2.27;;
10701;SDS011;5402;50.004;8.246;2022-10-23T14:37:14;4.07;;;2.50;;
10701;SDS011;5402;50.004;8.246;2022-10-23T14:39:43;5.20;;;2.40;;
10701;SDS011;5402;50.004;8.246;2022-10-23T14:42:10;2.87;;;2.17;;
10701;SDS011;5402;50.004;8.246;2022-10-23T14:44:37;2.53;;;2.10;;
10701;SDS011;5402;50.004;8.246;2022-10-23T14:47:04;6.67;;;3.80;;
10701;SDS011;5402;50.004;8.246;2022-10-23T14:49:31;3.77;;;2.80;;
10701;SDS011;5402;50.004;8.246;2022-10-23T14:51:59;4.97;;;2.43;;
10701;SDS011;5402;50.004;8.246;2022-10-23T14:54:26;4.90;;;2.40;;
10701;SDS011;5402;50.004;8.246;2022-10-23T14:56:56;2.37;;;2.13;;
10701;SDS011;5402;50.004;8.246;2022-10-23T14:59:23;4.00;;;2.03;;
10701;SDS011;5402;50.004;8.246;2022-10-23T15:01:50;3.60;;;2.43;;
10701;SDS011;5402;50.004;8.246;2022-10-23T15:04:16;2.60;;;2.40;;
10701;SDS011;5402;50.004;8.246;2022-10-23T15:06:43;2.87;;;2.27;;
10701;SDS011;5402;50.004;8.246;2022-10-23T15:09:11;2.20;;;2.00;;
10701;SDS011;5402;50.004;8.246;2022-10-23T15:11:38;7.13;;;2.53;;
10701;SDS011;5402;50.004;8.246;2022-10-23T15:14:06;2.50;;;2.20;;
10701;SDS011;5402;50.004;8.246;2022-10-23T15:16:33;3.00;;;2.73;;